AZV2641 LTAF-HESH
Flight info
| Callsign | AZV2641 |
|---|---|
| Flight time | 1h 34m |
| Altitude | 32000 |
| Route | ADA DCT CKR DCT LUFAD DCT VESAR DCT ECN DCT PEFKO DCT GIPRO DCT IDAKU/N0486F330 DCT BIRES DCT PASOS DCT RAMDA DCT VUTAR DCT SIMSA DCT IVUTA DCT SH718 |
| Aircraft | B77W/H-SDE1E2E3FGHIJ2J3J4J5M1RWXY/LB1D1 |
Departure
| Time | 2026-04-20 20:14 |
|---|---|
| Airport | Adana Şakirpaşa Airport (LTAF) |
Arrival
| Time | 2026-04-20 21:48 |
|---|---|
| Airport | Sharm El Sheikh International Airport (HESH) |
| Time | Latitude | Longitude | Altitude | Speed | Heading |
|---|---|---|---|---|---|
| 2026-04-20 19:35 | 36.98428 | 35.29562 | 75 ft | 0 kts | 141° |
| 2026-04-20 20:01 | 36.98434 | 35.29556 | 75 ft | 2 kts | 143° |
| 2026-04-20 20:02 | 36.98447 | 35.29545 | 75 ft | 2 kts | 152° |
| 2026-04-20 20:02 | 36.98460 | 35.29537 | 75 ft | 2 kts | 159° |
| 2026-04-20 20:02 | 36.98474 | 35.29532 | 75 ft | 2 kts | 166° |
| 2026-04-20 20:02 | 36.98489 | 35.29528 | 75 ft | 2 kts | 173° |
| 2026-04-20 20:03 | 36.98504 | 35.29527 | 75 ft | 2 kts | 180° |
| 2026-04-20 20:03 | 36.98519 | 35.29528 | 75 ft | 2 kts | 187° |
| 2026-04-20 20:03 | 36.98526 | 35.29529 | 75 ft | 0 kts | 190° |
| 2026-04-20 20:06 | 36.98518 | 35.29527 | 74 ft | 3 kts | 192° |
| 2026-04-20 20:06 | 36.98489 | 35.29511 | 74 ft | 6 kts | 212° |
| 2026-04-20 20:06 | 36.98452 | 35.29469 | 73 ft | 7 kts | 230° |
| 2026-04-20 20:06 | 36.98416 | 35.29412 | 72 ft | 8 kts | 232° |
| 2026-04-20 20:07 | 36.98377 | 35.29345 | 71 ft | 9 kts | 239° |
| 2026-04-20 20:07 | 36.98377 | 35.29268 | 71 ft | 9 kts | 307° |
| 2026-04-20 20:07 | 36.98418 | 35.29207 | 71 ft | 8 kts | 299° |
| 2026-04-20 20:07 | 36.98434 | 35.29135 | 71 ft | 8 kts | 279° |
| 2026-04-20 20:08 | 36.98444 | 35.29056 | 71 ft | 11 kts | 279° |
| 2026-04-20 20:08 | 36.98460 | 35.28931 | 71 ft | 17 kts | 273° |
| 2026-04-20 20:08 | 36.98413 | 35.28773 | 71 ft | 20 kts | 233° |
| 2026-04-20 20:08 | 36.98333 | 35.28639 | 71 ft | 18 kts | 233° |
| 2026-04-20 20:09 | 36.98261 | 35.28514 | 71 ft | 17 kts | 234° |
| 2026-04-20 20:09 | 36.98193 | 35.28399 | 71 ft | 15 kts | 233° |
| 2026-04-20 20:09 | 36.98130 | 35.28291 | 70 ft | 15 kts | 233° |
| 2026-04-20 20:09 | 36.98066 | 35.28182 | 68 ft | 15 kts | 233° |
| 2026-04-20 20:10 | 36.98002 | 35.28074 | 67 ft | 14 kts | 233° |
| 2026-04-20 20:10 | 36.97940 | 35.27971 | 67 ft | 16 kts | 233° |
| 2026-04-20 20:10 | 36.97865 | 35.27844 | 67 ft | 20 kts | 233° |
| 2026-04-20 20:10 | 36.97772 | 35.27687 | 64 ft | 23 kts | 233° |
| 2026-04-20 20:11 | 36.97678 | 35.27531 | 64 ft | 21 kts | 233° |
| 2026-04-20 20:11 | 36.97592 | 35.27386 | 64 ft | 19 kts | 233° |
| 2026-04-20 20:11 | 36.97513 | 35.27253 | 64 ft | 18 kts | 233° |
| 2026-04-20 20:11 | 36.97441 | 35.27132 | 64 ft | 16 kts | 232° |
| 2026-04-20 20:12 | 36.97387 | 35.27009 | 63 ft | 16 kts | 257° |
| 2026-04-20 20:12 | 36.97409 | 35.26883 | 63 ft | 14 kts | 310° |
| 2026-04-20 20:12 | 36.97496 | 35.26844 | 61 ft | 12 kts | 30° |
| 2026-04-20 20:13 | 36.97514 | 35.26863 | 61 ft | 0 kts | 49° |
| 2026-04-20 20:13 | 36.97623 | 35.27040 | 62 ft | 61 kts | 53° |
| 2026-04-20 20:13 | 36.98018 | 35.27708 | 66 ft | 127 kts | 53° |
| 2026-04-20 20:13 | 36.98643 | 35.28770 | 257 ft | 163 kts | 54° |
| 2026-04-20 20:14 | 36.99254 | 35.29956 | 858 ft | 172 kts | 59° |
| 2026-04-20 20:14 | 36.99874 | 35.31259 | 1501 ft | 178 kts | 56° |
| 2026-04-20 20:14 | 37.00608 | 35.32563 | 1908 ft | 190 kts | 52° |
| 2026-04-20 20:14 | 37.01407 | 35.33941 | 2346 ft | 203 kts | 53° |
| 2026-04-20 20:15 | 37.02223 | 35.35455 | 2729 ft | 220 kts | 56° |
| 2026-04-20 20:15 | 37.03099 | 35.37120 | 3148 ft | 236 kts | 55° |
| 2026-04-20 20:15 | 37.04018 | 35.38849 | 3723 ft | 246 kts | 55° |
| 2026-04-20 20:15 | 37.04970 | 35.40619 | 4404 ft | 252 kts | 54° |
| 2026-04-20 20:16 | 37.05984 | 35.42469 | 5006 ft | 260 kts | 54° |
| 2026-04-20 20:16 | 37.06861 | 35.44422 | 5780 ft | 261 kts | 71° |
| 2026-04-20 20:16 | 37.07071 | 35.46677 | 6399 ft | 270 kts | 94° |
| 2026-04-20 20:16 | 37.06513 | 35.48920 | 7055 ft | 277 kts | 118° |
| 2026-04-20 20:17 | 37.05199 | 35.50686 | 7594 ft | 288 kts | 147° |
| 2026-04-20 20:17 | 37.03287 | 35.51506 | 8191 ft | 294 kts | 176° |
| 2026-04-20 20:17 | 37.01294 | 35.51063 | 8819 ft | 295 kts | 207° |
| 2026-04-20 20:17 | 36.99728 | 35.49482 | 9433 ft | 293 kts | 237° |
| 2026-04-20 20:18 | 36.98915 | 35.47175 | 10059 ft | 291 kts | 257° |
| 2026-04-20 20:18 | 36.98430 | 35.44692 | 10526 ft | 302 kts | 259° |
| 2026-04-20 20:18 | 36.97951 | 35.42086 | 10871 ft | 318 kts | 259° |
| 2026-04-20 20:18 | 36.97448 | 35.39341 | 11238 ft | 334 kts | 259° |
| 2026-04-20 20:19 | 36.96921 | 35.36470 | 11631 ft | 349 kts | 259° |
| 2026-04-20 20:19 | 36.96365 | 35.33455 | 12054 ft | 364 kts | 259° |
| 2026-04-20 20:19 | 36.95781 | 35.30296 | 12660 ft | 375 kts | 259° |
| 2026-04-20 20:19 | 36.95194 | 35.27134 | 13450 ft | 381 kts | 259° |
| 2026-04-20 20:20 | 36.94595 | 35.23912 | 14358 ft | 384 kts | 259° |
| 2026-04-20 20:20 | 36.93858 | 35.20725 | 15322 ft | 390 kts | 251° |
| 2026-04-20 20:20 | 36.92715 | 35.17619 | 16338 ft | 394 kts | 246° |
| 2026-04-20 20:20 | 36.91509 | 35.14575 | 17309 ft | 397 kts | 246° |
| 2026-04-20 20:21 | 36.90285 | 35.11495 | 18226 ft | 401 kts | 246° |
| 2026-04-20 20:21 | 36.89050 | 35.08389 | 19151 ft | 404 kts | 246° |
| 2026-04-20 20:21 | 36.87767 | 35.05214 | 19978 ft | 411 kts | 244° |
| 2026-04-20 20:21 | 36.86379 | 35.02115 | 20837 ft | 415 kts | 243° |
| 2026-04-20 20:22 | 36.85437 | 35.00035 | 21413 ft | 417 kts | 243° |
| 2026-04-20 20:22 | 36.83524 | 34.95804 | 22486 ft | 423 kts | 243° |
| 2026-04-20 20:22 | 36.82083 | 34.92608 | 23282 ft | 427 kts | 243° |
| 2026-04-20 20:22 | 36.80631 | 34.89386 | 24053 ft | 431 kts | 243° |
| 2026-04-20 20:23 | 36.79155 | 34.86110 | 24776 ft | 436 kts | 243° |
| 2026-04-20 20:23 | 36.77591 | 34.82913 | 25461 ft | 442 kts | 237° |
| 2026-04-20 20:23 | 36.75602 | 34.79942 | 26134 ft | 450 kts | 228° |
| 2026-04-20 20:23 | 36.73251 | 34.77379 | 26811 ft | 456 kts | 221° |
| 2026-04-20 20:24 | 36.70703 | 34.74968 | 27549 ft | 459 kts | 220° |
| 2026-04-20 20:24 | 36.68167 | 34.72595 | 28223 ft | 463 kts | 220° |
| 2026-04-20 20:24 | 36.65588 | 34.70184 | 28842 ft | 467 kts | 220° |
| 2026-04-20 20:24 | 36.62961 | 34.67727 | 29494 ft | 470 kts | 220° |
| 2026-04-20 20:25 | 36.60362 | 34.65298 | 30340 ft | 468 kts | 219° |
| 2026-04-20 20:25 | 36.57767 | 34.62874 | 31248 ft | 463 kts | 220° |
| 2026-04-20 20:25 | 36.55290 | 34.60560 | 31798 ft | 463 kts | 220° |
| 2026-04-20 20:25 | 36.52637 | 34.58083 | 31927 ft | 463 kts | 220° |
| 2026-04-20 20:26 | 36.47503 | 34.53295 | 31931 ft | 459 kts | 220° |
| 2026-04-20 20:26 | 36.42372 | 34.48517 | 31925 ft | 459 kts | 220° |
| 2026-04-20 20:27 | 36.37257 | 34.43760 | 31926 ft | 458 kts | 220° |
| 2026-04-20 20:27 | 36.32173 | 34.39040 | 31921 ft | 457 kts | 220° |
| 2026-04-20 20:28 | 36.27084 | 34.34323 | 31917 ft | 457 kts | 219° |
| 2026-04-20 20:28 | 36.21976 | 34.29597 | 31936 ft | 458 kts | 219° |
| 2026-04-20 20:29 | 36.16873 | 34.24884 | 31920 ft | 455 kts | 219° |
| 2026-04-20 20:29 | 36.11789 | 34.20194 | 31921 ft | 457 kts | 219° |
| 2026-04-20 20:30 | 36.06718 | 34.15527 | 31918 ft | 456 kts | 219° |
| 2026-04-20 20:30 | 36.01657 | 34.10874 | 31918 ft | 455 kts | 219° |
| 2026-04-20 20:31 | 35.96567 | 34.06203 | 31908 ft | 456 kts | 219° |
| 2026-04-20 20:31 | 35.91439 | 34.01594 | 31909 ft | 457 kts | 215° |
| 2026-04-20 20:32 | 35.85926 | 33.97671 | 31911 ft | 457 kts | 213° |
| 2026-04-20 20:32 | 35.80372 | 33.93802 | 31912 ft | 457 kts | 213° |
| 2026-04-20 20:33 | 35.74862 | 33.89967 | 31922 ft | 455 kts | 213° |
| 2026-04-20 20:33 | 35.69355 | 33.86140 | 31918 ft | 456 kts | 213° |
| 2026-04-20 20:34 | 35.63808 | 33.82291 | 31933 ft | 457 kts | 213° |
| 2026-04-20 20:34 | 35.58284 | 33.78464 | 31931 ft | 457 kts | 213° |
| 2026-04-20 20:35 | 35.52730 | 33.74622 | 31932 ft | 456 kts | 213° |
| 2026-04-20 20:35 | 35.47182 | 33.70790 | 31933 ft | 456 kts | 213° |
| 2026-04-20 20:36 | 35.41675 | 33.66993 | 31935 ft | 455 kts | 213° |
| 2026-04-20 20:36 | 35.36145 | 33.63186 | 31941 ft | 455 kts | 213° |
| 2026-04-20 20:37 | 35.30618 | 33.59387 | 31942 ft | 455 kts | 213° |
| 2026-04-20 20:37 | 35.25079 | 33.55585 | 31943 ft | 455 kts | 213° |
| 2026-04-20 20:38 | 35.19545 | 33.51793 | 31951 ft | 455 kts | 213° |
| 2026-04-20 20:38 | 35.14020 | 33.47986 | 31955 ft | 454 kts | 215° |
| 2026-04-20 20:39 | 35.08596 | 33.44003 | 31952 ft | 454 kts | 216° |
| 2026-04-20 20:39 | 35.03181 | 33.40031 | 31954 ft | 453 kts | 215° |
| 2026-04-20 20:40 | 34.97797 | 33.36097 | 31961 ft | 452 kts | 216° |
| 2026-04-20 20:40 | 34.92361 | 33.32135 | 31971 ft | 453 kts | 215° |
| 2026-04-20 20:41 | 34.86951 | 33.28201 | 31963 ft | 453 kts | 215° |
| 2026-04-20 20:41 | 34.81530 | 33.24265 | 31968 ft | 453 kts | 215° |
| 2026-04-20 20:42 | 34.76108 | 33.20336 | 31962 ft | 453 kts | 215° |
| 2026-04-20 20:42 | 34.70729 | 33.16328 | 31955 ft | 452 kts | 216° |
| 2026-04-20 20:43 | 34.65400 | 33.12300 | 31951 ft | 452 kts | 216° |
| 2026-04-20 20:43 | 34.60077 | 33.08301 | 31958 ft | 452 kts | 216° |
| 2026-04-20 20:44 | 34.54696 | 33.04269 | 31960 ft | 451 kts | 216° |
| 2026-04-20 20:44 | 34.49374 | 33.00288 | 31950 ft | 450 kts | 216° |
| 2026-04-20 20:45 | 34.44051 | 32.96314 | 31954 ft | 450 kts | 216° |
| 2026-04-20 20:45 | 34.38689 | 32.92316 | 31952 ft | 450 kts | 217° |
| 2026-04-20 20:46 | 34.33335 | 32.88331 | 31949 ft | 451 kts | 217° |
| 2026-04-20 20:46 | 34.27964 | 32.84338 | 31943 ft | 451 kts | 217° |
| 2026-04-20 20:47 | 34.22633 | 32.80383 | 31948 ft | 450 kts | 217° |
| 2026-04-20 20:47 | 34.17253 | 32.76397 | 31947 ft | 451 kts | 217° |
| 2026-04-20 20:48 | 34.11739 | 32.72752 | 31943 ft | 457 kts | 207° |
| 2026-04-20 20:48 | 34.05458 | 32.71041 | 31942 ft | 471 kts | 189° |
| 2026-04-20 20:49 | 33.98804 | 32.71614 | 31949 ft | 482 kts | 177° |
| 2026-04-20 20:49 | 33.92162 | 32.72796 | 31955 ft | 482 kts | 177° |
| 2026-04-20 20:50 | 33.85512 | 32.73973 | 31960 ft | 483 kts | 177° |
| 2026-04-20 20:50 | 33.78866 | 32.75143 | 31968 ft | 482 kts | 177° |
| 2026-04-20 20:51 | 33.72203 | 32.76310 | 31961 ft | 482 kts | 177° |
| 2026-04-20 20:51 | 33.65564 | 32.77469 | 31964 ft | 484 kts | 177° |
| 2026-04-20 20:52 | 33.58939 | 32.78625 | 31964 ft | 483 kts | 177° |
| 2026-04-20 20:52 | 33.52239 | 32.79790 | 31972 ft | 483 kts | 178° |
| 2026-04-20 20:53 | 33.45787 | 32.80911 | 31971 ft | 484 kts | 177° |
| 2026-04-20 20:53 | 33.38911 | 32.82103 | 31972 ft | 483 kts | 178° |
| 2026-04-20 20:54 | 33.32289 | 32.83250 | 31976 ft | 483 kts | 177° |
| 2026-04-20 20:54 | 33.25619 | 32.84403 | 31964 ft | 481 kts | 178° |
| 2026-04-20 20:55 | 33.18959 | 32.85551 | 31962 ft | 483 kts | 178° |
| 2026-04-20 20:55 | 33.12326 | 32.86695 | 31968 ft | 482 kts | 177° |
| 2026-04-20 20:56 | 33.05685 | 32.88039 | 31977 ft | 487 kts | 173° |
| 2026-04-20 20:56 | 32.99069 | 32.89834 | 31962 ft | 487 kts | 173° |
| 2026-04-20 20:57 | 32.92429 | 32.91611 | 31975 ft | 488 kts | 173° |
| 2026-04-20 20:57 | 32.85796 | 32.93365 | 31976 ft | 487 kts | 173° |
| 2026-04-20 20:58 | 32.79179 | 32.95102 | 31968 ft | 486 kts | 173° |
| 2026-04-20 20:58 | 32.72568 | 32.96829 | 31967 ft | 488 kts | 173° |
| 2026-04-20 20:59 | 32.66224 | 32.98481 | 31973 ft | 488 kts | 173° |
| 2026-04-20 20:59 | 32.59333 | 33.00272 | 31972 ft | 487 kts | 173° |
| 2026-04-20 21:00 | 32.52667 | 33.02000 | 31969 ft | 488 kts | 173° |
| 2026-04-20 21:00 | 32.46042 | 33.03714 | 31961 ft | 489 kts | 173° |
| 2026-04-20 21:01 | 32.39378 | 33.05437 | 31983 ft | 486 kts | 173° |
| 2026-04-20 21:01 | 32.32745 | 33.07148 | 31971 ft | 487 kts | 173° |
| 2026-04-20 21:02 | 32.26133 | 33.08851 | 31979 ft | 488 kts | 173° |
| 2026-04-20 21:02 | 32.19470 | 33.10528 | 31988 ft | 486 kts | 175° |
| 2026-04-20 21:03 | 32.12838 | 33.11915 | 31992 ft | 485 kts | 176° |
| 2026-04-20 21:03 | 32.06191 | 33.13301 | 32006 ft | 485 kts | 176° |
| 2026-04-20 21:04 | 31.99545 | 33.14694 | 32013 ft | 484 kts | 176° |
| 2026-04-20 21:04 | 31.92912 | 33.16086 | 32002 ft | 485 kts | 176° |
| 2026-04-20 21:05 | 31.86256 | 33.17485 | 32011 ft | 485 kts | 176° |
| 2026-04-20 21:05 | 31.79612 | 33.18880 | 31996 ft | 485 kts | 176° |
| 2026-04-20 21:06 | 31.72962 | 33.20276 | 32011 ft | 485 kts | 176° |
| 2026-04-20 21:06 | 31.66347 | 33.21662 | 32007 ft | 485 kts | 176° |
| 2026-04-20 21:07 | 31.59660 | 33.23062 | 32004 ft | 485 kts | 176° |
| 2026-04-20 21:07 | 31.53038 | 33.24445 | 31997 ft | 487 kts | 176° |
| 2026-04-20 21:08 | 31.46360 | 33.25840 | 32005 ft | 485 kts | 176° |
| 2026-04-20 21:08 | 31.39708 | 33.27227 | 32001 ft | 485 kts | 176° |
| 2026-04-20 21:09 | 31.33069 | 33.28608 | 31998 ft | 486 kts | 176° |
| 2026-04-20 21:09 | 31.26426 | 33.29989 | 32010 ft | 485 kts | 177° |
| 2026-04-20 21:10 | 31.19787 | 33.31368 | 32006 ft | 484 kts | 177° |
| 2026-04-20 21:10 | 31.13168 | 33.32740 | 32018 ft | 484 kts | 177° |
| 2026-04-20 21:11 | 31.06509 | 33.34117 | 32012 ft | 484 kts | 177° |
| 2026-04-20 21:11 | 30.99920 | 33.35480 | 32016 ft | 481 kts | 178° |
| 2026-04-20 21:12 | 30.93305 | 33.36964 | 32020 ft | 489 kts | 172° |
| 2026-04-20 21:12 | 30.86770 | 33.39174 | 32023 ft | 488 kts | 171° |
| 2026-04-20 21:13 | 30.80226 | 33.41419 | 32022 ft | 490 kts | 171° |
| 2026-04-20 21:13 | 30.73686 | 33.43655 | 32021 ft | 491 kts | 171° |
| 2026-04-20 21:14 | 30.67125 | 33.45893 | 32028 ft | 491 kts | 171° |
| 2026-04-20 21:14 | 30.60538 | 33.48136 | 32029 ft | 490 kts | 171° |
| 2026-04-20 21:15 | 30.53999 | 33.50357 | 32027 ft | 491 kts | 171° |
| 2026-04-20 21:15 | 30.47481 | 33.52569 | 32031 ft | 487 kts | 171° |
| 2026-04-20 21:16 | 30.40925 | 33.54787 | 32032 ft | 491 kts | 171° |
| 2026-04-20 21:16 | 30.34333 | 33.57019 | 32037 ft | 490 kts | 171° |
| 2026-04-20 21:17 | 30.27806 | 33.59222 | 32039 ft | 491 kts | 172° |
| 2026-04-20 21:17 | 30.21236 | 33.61438 | 32034 ft | 490 kts | 171° |
| 2026-04-20 21:18 | 30.14710 | 33.63637 | 32038 ft | 490 kts | 172° |
| 2026-04-20 21:18 | 30.08118 | 33.65854 | 32022 ft | 489 kts | 172° |
| 2026-04-20 21:19 | 30.01586 | 33.68048 | 32025 ft | 488 kts | 172° |
| 2026-04-20 21:20 | 29.91830 | 33.71320 | 32018 ft | 486 kts | 172° |
| 2026-04-20 21:20 | 29.86394 | 33.73137 | 32017 ft | 490 kts | 172° |
| 2026-04-20 21:21 | 29.78774 | 33.75686 | 32016 ft | 487 kts | 172° |
| 2026-04-20 21:21 | 29.72208 | 33.77875 | 32011 ft | 491 kts | 173° |
| 2026-04-20 21:22 | 29.65683 | 33.80053 | 32017 ft | 488 kts | 173° |
| 2026-04-20 21:22 | 29.59141 | 33.82247 | 32013 ft | 489 kts | 171° |
| 2026-04-20 21:23 | 29.52635 | 33.84704 | 32021 ft | 493 kts | 171° |
| 2026-04-20 21:23 | 29.46117 | 33.87175 | 32019 ft | 490 kts | 171° |
| 2026-04-20 21:24 | 29.39697 | 33.89599 | 31519 ft | 485 kts | 171° |
| 2026-04-20 21:24 | 29.36488 | 33.90803 | 30631 ft | 490 kts | 171° |
| 2026-04-20 21:24 | 29.33240 | 33.92023 | 30140 ft | 485 kts | 170° |
| 2026-04-20 21:24 | 29.30067 | 33.93215 | 29640 ft | 480 kts | 170° |
| 2026-04-20 21:25 | 29.26880 | 33.94408 | 29117 ft | 476 kts | 171° |
| 2026-04-20 21:25 | 29.23731 | 33.95260 | 28576 ft | 462 kts | 180° |
| 2026-04-20 21:25 | 29.20581 | 33.95573 | 28050 ft | 451 kts | 186° |
| 2026-04-20 21:25 | 29.17471 | 33.95716 | 27528 ft | 447 kts | 186° |
| 2026-04-20 21:26 | 29.14354 | 33.95847 | 27009 ft | 443 kts | 186° |
| 2026-04-20 21:26 | 29.11297 | 33.95974 | 26489 ft | 440 kts | 186° |
| 2026-04-20 21:26 | 29.08280 | 33.96098 | 25986 ft | 436 kts | 186° |
| 2026-04-20 21:26 | 29.05247 | 33.96223 | 25461 ft | 433 kts | 185° |
| 2026-04-20 21:27 | 29.02227 | 33.96347 | 24943 ft | 430 kts | 185° |
| 2026-04-20 21:27 | 28.99236 | 33.96469 | 24416 ft | 428 kts | 185° |
| 2026-04-20 21:27 | 28.96308 | 33.96590 | 23897 ft | 425 kts | 185° |
| 2026-04-20 21:27 | 28.93338 | 33.96711 | 23381 ft | 422 kts | 185° |
| 2026-04-20 21:28 | 28.90414 | 33.96830 | 22852 ft | 420 kts | 184° |
| 2026-04-20 21:28 | 28.87526 | 33.96948 | 22328 ft | 417 kts | 184° |
| 2026-04-20 21:28 | 28.84614 | 33.97067 | 21792 ft | 414 kts | 184° |
| 2026-04-20 21:28 | 28.81756 | 33.97184 | 21277 ft | 411 kts | 184° |
| 2026-04-20 21:29 | 28.78896 | 33.97300 | 20766 ft | 409 kts | 184° |
| 2026-04-20 21:29 | 28.76092 | 33.97415 | 20246 ft | 406 kts | 184° |
| 2026-04-20 21:29 | 28.73258 | 33.97530 | 19711 ft | 404 kts | 184° |
| 2026-04-20 21:29 | 28.70447 | 33.97644 | 19195 ft | 401 kts | 183° |
| 2026-04-20 21:30 | 28.67658 | 33.97758 | 18678 ft | 399 kts | 183° |
| 2026-04-20 21:30 | 28.64921 | 33.97869 | 18168 ft | 397 kts | 183° |
| 2026-04-20 21:30 | 28.62148 | 33.97982 | 17647 ft | 395 kts | 182° |
| 2026-04-20 21:30 | 28.59390 | 33.98094 | 17108 ft | 393 kts | 182° |
| 2026-04-20 21:31 | 28.56694 | 33.98203 | 16595 ft | 392 kts | 182° |
| 2026-04-20 21:31 | 28.53964 | 33.98314 | 16078 ft | 390 kts | 182° |
| 2026-04-20 21:31 | 28.51249 | 33.98424 | 15571 ft | 388 kts | 182° |
| 2026-04-20 21:31 | 28.48573 | 33.98533 | 15053 ft | 386 kts | 182° |
| 2026-04-20 21:32 | 28.45888 | 33.98642 | 14518 ft | 384 kts | 182° |
| 2026-04-20 21:32 | 28.43230 | 33.98749 | 14011 ft | 383 kts | 182° |
| 2026-04-20 21:32 | 28.40554 | 33.98857 | 13485 ft | 381 kts | 182° |
| 2026-04-20 21:32 | 28.37895 | 33.98965 | 12964 ft | 379 kts | 181° |
| 2026-04-20 21:33 | 28.35290 | 33.99070 | 12459 ft | 377 kts | 181° |
| 2026-04-20 21:33 | 28.32666 | 33.99178 | 11936 ft | 375 kts | 180° |
| 2026-04-20 21:33 | 28.30066 | 33.99587 | 11427 ft | 377 kts | 169° |
| 2026-04-20 21:33 | 28.27606 | 34.00560 | 11178 ft | 369 kts | 160° |
| 2026-04-20 21:34 | 28.25277 | 34.01696 | 10962 ft | 359 kts | 159° |
| 2026-04-20 21:34 | 28.23033 | 34.02803 | 10724 ft | 350 kts | 159° |
| 2026-04-20 21:34 | 28.20818 | 34.03897 | 10530 ft | 336 kts | 159° |
| 2026-04-20 21:34 | 28.18736 | 34.04926 | 10398 ft | 321 kts | 159° |
| 2026-04-20 21:35 | 28.16723 | 34.05920 | 10263 ft | 307 kts | 159° |
| 2026-04-20 21:35 | 28.14793 | 34.06873 | 10121 ft | 295 kts | 159° |
| 2026-04-20 21:35 | 28.12929 | 34.07792 | 9738 ft | 296 kts | 159° |
| 2026-04-20 21:35 | 28.11031 | 34.08726 | 9305 ft | 299 kts | 159° |
| 2026-04-20 21:36 | 28.09116 | 34.09671 | 8877 ft | 299 kts | 159° |
| 2026-04-20 21:36 | 28.07222 | 34.10606 | 8517 ft | 290 kts | 159° |
| 2026-04-20 21:36 | 28.05410 | 34.11500 | 8200 ft | 281 kts | 158° |
| 2026-04-20 21:36 | 28.03633 | 34.12376 | 7925 ft | 272 kts | 158° |
| 2026-04-20 21:37 | 28.01897 | 34.13231 | 7549 ft | 275 kts | 158° |
| 2026-04-20 21:37 | 28.00121 | 34.14104 | 7126 ft | 279 kts | 158° |
| 2026-04-20 21:37 | 27.98344 | 34.14978 | 6745 ft | 280 kts | 157° |
| 2026-04-20 21:37 | 27.96551 | 34.15861 | 6399 ft | 280 kts | 156° |
| 2026-04-20 21:38 | 27.94782 | 34.16732 | 6071 ft | 280 kts | 156° |
| 2026-04-20 21:38 | 27.92986 | 34.17615 | 5727 ft | 280 kts | 156° |
| 2026-04-20 21:38 | 27.91186 | 34.18500 | 5334 ft | 278 kts | 156° |
| 2026-04-20 21:38 | 27.89446 | 34.19356 | 5077 ft | 274 kts | 156° |
| 2026-04-20 21:39 | 27.87646 | 34.20129 | 4726 ft | 274 kts | 169° |
| 2026-04-20 21:39 | 27.85777 | 34.20082 | 4383 ft | 270 kts | 199° |
| 2026-04-20 21:39 | 27.84133 | 34.19127 | 4165 ft | 260 kts | 217° |
| 2026-04-20 21:39 | 27.82658 | 34.17963 | 3759 ft | 265 kts | 218° |
| 2026-04-20 21:40 | 27.81133 | 34.16757 | 3455 ft | 264 kts | 215° |
| 2026-04-20 21:40 | 27.79442 | 34.16062 | 3342 ft | 259 kts | 186° |
| 2026-04-20 21:40 | 27.77683 | 34.16364 | 3202 ft | 251 kts | 154° |
| 2026-04-20 21:40 | 27.76336 | 34.17479 | 3155 ft | 234 kts | 124° |
| 2026-04-20 21:41 | 27.75730 | 34.19072 | 3121 ft | 214 kts | 89° |
| 2026-04-20 21:41 | 27.75994 | 34.20578 | 3090 ft | 186 kts | 52° |
| 2026-04-20 21:41 | 27.76926 | 34.21433 | 3065 ft | 169 kts | 13° |
| 2026-04-20 21:41 | 27.78070 | 34.21750 | 3069 ft | 165 kts | 10° |
| 2026-04-20 21:42 | 27.79184 | 34.22053 | 3067 ft | 165 kts | 10° |
| 2026-04-20 21:42 | 27.80299 | 34.22355 | 3063 ft | 165 kts | 10° |
| 2026-04-20 21:42 | 27.81412 | 34.22681 | 3063 ft | 166 kts | 17° |
| 2026-04-20 21:42 | 27.82413 | 34.23360 | 3058 ft | 169 kts | 34° |
| 2026-04-20 21:43 | 27.83286 | 34.24231 | 3055 ft | 166 kts | 37° |
| 2026-04-20 21:43 | 27.84145 | 34.25125 | 3051 ft | 165 kts | 37° |
| 2026-04-20 21:43 | 27.84991 | 34.25998 | 3048 ft | 165 kts | 37° |
| 2026-04-20 21:43 | 27.85841 | 34.26876 | 2986 ft | 169 kts | 37° |
| 2026-04-20 21:44 | 27.86700 | 34.27766 | 2765 ft | 166 kts | 37° |
| 2026-04-20 21:44 | 27.87544 | 34.28639 | 2556 ft | 163 kts | 37° |
| 2026-04-20 21:44 | 27.88374 | 34.29497 | 2345 ft | 159 kts | 37° |
| 2026-04-20 21:44 | 27.89193 | 34.30345 | 2143 ft | 155 kts | 36° |
| 2026-04-20 21:45 | 27.89944 | 34.31121 | 1952 ft | 145 kts | 35° |
| 2026-04-20 21:45 | 27.90700 | 34.31902 | 1756 ft | 144 kts | 36° |
| 2026-04-20 21:45 | 27.91434 | 34.32662 | 1568 ft | 145 kts | 35° |
| 2026-04-20 21:45 | 27.92182 | 34.33432 | 1384 ft | 144 kts | 34° |
| 2026-04-20 21:46 | 27.92930 | 34.34206 | 1175 ft | 145 kts | 37° |
| 2026-04-20 21:46 | 27.93658 | 34.34985 | 965 ft | 145 kts | 37° |
| 2026-04-20 21:46 | 27.94407 | 34.35746 | 793 ft | 144 kts | 36° |
| 2026-04-20 21:46 | 27.95147 | 34.36513 | 615 ft | 146 kts | 38° |
| 2026-04-20 21:47 | 27.95905 | 34.37297 | 440 ft | 145 kts | 37° |
| 2026-04-20 21:47 | 27.96659 | 34.38077 | 272 ft | 148 kts | 37° |
| 2026-04-20 21:47 | 27.97407 | 34.38851 | 184 ft | 137 kts | 39° |
| 2026-04-20 21:47 | 27.98017 | 34.39477 | 178 ft | 100 kts | 42° |
| 2026-04-20 21:48 | 27.98395 | 34.39873 | 173 ft | 34 kts | 42° |
| 2026-04-20 21:48 | 27.98466 | 34.39944 | 172 ft | 3 kts | 32° |
| 2026-04-20 21:48 | 27.98475 | 34.39949 | 172 ft | 0 kts | 26° |
| 2026-04-20 21:48 | 27.98504 | 34.39959 | 171 ft | 11 kts | 2° |
| 2026-04-20 21:49 | 27.98584 | 34.39902 | 173 ft | 11 kts | 313° |
| 2026-04-20 21:49 | 27.98618 | 34.39839 | 176 ft | 6 kts | 277° |
| 2026-04-20 21:49 | 27.98609 | 34.39804 | 177 ft | 4 kts | 237° |
| 2026-04-20 21:49 | 27.98588 | 34.39778 | 178 ft | 3 kts | 226° |
| 2026-04-20 21:50 | 27.98550 | 34.39733 | 179 ft | 11 kts | 223° |
| 2026-04-20 21:50 | 27.98491 | 34.39672 | 179 ft | 11 kts | 223° |
| 2026-04-20 21:50 | 27.98440 | 34.39619 | 181 ft | 9 kts | 222° |
| 2026-04-20 21:50 | 27.98393 | 34.39570 | 182 ft | 8 kts | 223° |
| 2026-04-20 21:51 | 27.98348 | 34.39523 | 183 ft | 8 kts | 223° |
| 2026-04-20 21:51 | 27.98304 | 34.39477 | 183 ft | 8 kts | 223° |
| 2026-04-20 21:51 | 27.98263 | 34.39434 | 184 ft | 9 kts | 223° |
| 2026-04-20 21:51 | 27.98219 | 34.39388 | 186 ft | 6 kts | 223° |
| 2026-04-20 21:52 | 27.98186 | 34.39354 | 188 ft | 8 kts | 223° |
| 2026-04-20 21:52 | 27.98165 | 34.39331 | 189 ft | 2 kts | 222° |
| 2026-04-20 21:52 | 27.98150 | 34.39312 | 189 ft | 2 kts | 254° |
| 2026-04-20 21:52 | 27.98150 | 34.39302 | 189 ft | 0 kts | 274° |
| 2026-04-20 21:53 | 27.98151 | 34.39286 | 190 ft | 2 kts | 275° |
| 2026-04-20 21:53 | 27.98157 | 34.39269 | 191 ft | 3 kts | 304° |
| 2026-04-20 21:53 | 27.98167 | 34.39256 | 192 ft | 0 kts | 314° |
| 2026-04-20 21:53 | 27.98174 | 34.39248 | 192 ft | 1 kts | 314° |
| 2026-04-20 21:54 | 27.98175 | 34.39247 | 192 ft | 0 kts | 314° |